<?xml version="1.0" encoding="utf-8"?>
<gpx xmlns:xsi="http://www.w3.org/2001/XMLSchema-instance" xmlns:xsd="http://www.w3.org/2001/XMLSchema" version="1.1" creator="Shapelink.com" xmlns="http://www.topografix.com/GPX/1/1" xmlns:gpxtpx="http://www.garmin.com/xmlschemas/TrackPointExtension/v1">
  <metadata>
    <name>Löpning 4.18 km, 2019-10-14</name>
    <desc></desc>
    <author><name>Bengt Norberg</name></author> 
    <time>2019-10-14T17:39:14Z</time>
  </metadata>
  <trk>
    <name>Löpning 4.18 km, 2019-10-14</name>
    <trkseg>
      <trkpt lat="59.821028621679" lon="16.988845214005">
        <ele>62.2</ele>
        <time>2019-10-14T17:41:00Z</time>
      </trkpt>
      <trkpt lat="59.821208078158" lon="16.988745217938">
        <ele>59.2</ele>
        <time>2019-10-14T17:41:08Z</time>
      </trkpt>
      <trkpt lat="59.821389630112" lon="16.988643294034">
        <ele>55.6</ele>
        <time>2019-10-14T17:41:17Z</time>
      </trkpt>
      <trkpt lat="59.821573948093" lon="16.988589733693">
        <ele>52.4</ele>
        <time>2019-10-14T17:41:27Z</time>
      </trkpt>
      <trkpt lat="59.8217544104" lon="16.988501556105">
        <ele>50</ele>
        <time>2019-10-14T17:41:36Z</time>
      </trkpt>
      <trkpt lat="59.821926155531" lon="16.988387562265">
        <ele>48.4</ele>
        <time>2019-10-14T17:41:45Z</time>
      </trkpt>
      <trkpt lat="59.822094464083" lon="16.988257475177">
        <ele>46.6</ele>
        <time>2019-10-14T17:41:54Z</time>
      </trkpt>
      <trkpt lat="59.822286828688" lon="16.988131830496">
        <ele>45</ele>
        <time>2019-10-14T17:42:02Z</time>
      </trkpt>
      <trkpt lat="59.822390093696" lon="16.987987158902">
        <ele>30</ele>
        <time>2019-10-14T17:42:11Z</time>
      </trkpt>
      <trkpt lat="59.822572064745" lon="16.987868052103">
        <ele>29.8</ele>
        <time>2019-10-14T17:42:19Z</time>
      </trkpt>
      <trkpt lat="59.822754035794" lon="16.987755734643">
        <ele>29.6</ele>
        <time>2019-10-14T17:42:27Z</time>
      </trkpt>
      <trkpt lat="59.82293039097" lon="16.987655738576">
        <ele>31</ele>
        <time>2019-10-14T17:42:35Z</time>
      </trkpt>
      <trkpt lat="59.823110098906" lon="16.987544929858">
        <ele>32.8</ele>
        <time>2019-10-14T17:42:43Z</time>
      </trkpt>
      <trkpt lat="59.823293243421" lon="16.987453567148">
        <ele>34.8</ele>
        <time>2019-10-14T17:42:51Z</time>
      </trkpt>
      <trkpt lat="59.823470269149" lon="16.987348793398">
        <ele>37.2</ele>
        <time>2019-10-14T17:42:59Z</time>
      </trkpt>
      <trkpt lat="59.823663304306" lon="16.987225579468">
        <ele>36</ele>
        <time>2019-10-14T17:43:07Z</time>
      </trkpt>
      <trkpt lat="59.823853321979" lon="16.987101443529">
        <ele>35.6</ele>
        <time>2019-10-14T17:43:15Z</time>
      </trkpt>
      <trkpt lat="59.824036298856" lon="16.987014523226">
        <ele>36.4</ele>
        <time>2019-10-14T17:43:23Z</time>
      </trkpt>
      <trkpt lat="59.824220113923" lon="16.986919304842">
        <ele>36</ele>
        <time>2019-10-14T17:43:31Z</time>
      </trkpt>
      <trkpt lat="59.824404599542" lon="16.986832803634">
        <ele>37</ele>
        <time>2019-10-14T17:43:39Z</time>
      </trkpt>
      <trkpt lat="59.824590593903" lon="16.986747140616">
        <ele>36.8</ele>
        <time>2019-10-14T17:43:47Z</time>
      </trkpt>
      <trkpt lat="59.824778348463" lon="16.986669188946">
        <ele>37.2</ele>
        <time>2019-10-14T17:43:55Z</time>
      </trkpt>
      <trkpt lat="59.824966605937" lon="16.98657162363">
        <ele>37.4</ele>
        <time>2019-10-14T17:44:03Z</time>
      </trkpt>
      <trkpt lat="59.825158886723" lon="16.986461485464">
        <ele>37.2</ele>
        <time>2019-10-14T17:44:11Z</time>
      </trkpt>
      <trkpt lat="59.825345719274" lon="16.986375235713">
        <ele>36.8</ele>
        <time>2019-10-14T17:44:19Z</time>
      </trkpt>
      <trkpt lat="59.825535150214" lon="16.986271719248">
        <ele>36.8</ele>
        <time>2019-10-14T17:44:27Z</time>
      </trkpt>
      <trkpt lat="59.825728436828" lon="16.986142051255">
        <ele>34.6</ele>
        <time>2019-10-14T17:44:35Z</time>
      </trkpt>
      <trkpt lat="59.825912503352" lon="16.986019759334">
        <ele>36</ele>
        <time>2019-10-14T17:44:43Z</time>
      </trkpt>
      <trkpt lat="59.82610294012" lon="16.985904005295">
        <ele>36.4</ele>
        <time>2019-10-14T17:44:51Z</time>
      </trkpt>
      <trkpt lat="59.826291365232" lon="16.985804931237">
        <ele>36.8</ele>
        <time>2019-10-14T17:44:59Z</time>
      </trkpt>
      <trkpt lat="59.826474090652" lon="16.985708036473">
        <ele>37.2</ele>
        <time>2019-10-14T17:45:07Z</time>
      </trkpt>
      <trkpt lat="59.826528908278" lon="16.985682471678">
        <ele>37.2</ele>
        <time>2019-10-14T17:45:11Z</time>
      </trkpt>
      <trkpt lat="59.826471827539" lon="16.98554651726">
        <ele>38.8</ele>
        <time>2019-10-14T17:45:16Z</time>
      </trkpt>
      <trkpt lat="59.826416674637" lon="16.985178635669">
        <ele>42.4</ele>
        <time>2019-10-14T17:45:25Z</time>
      </trkpt>
      <trkpt lat="59.826385829245" lon="16.984804300015">
        <ele>44.2</ele>
        <time>2019-10-14T17:45:33Z</time>
      </trkpt>
      <trkpt lat="59.826351798731" lon="16.984272719917">
        <ele>45.2</ele>
        <time>2019-10-14T17:45:44Z</time>
      </trkpt>
      <trkpt lat="59.826325228108" lon="16.983884302671">
        <ele>43.2</ele>
        <time>2019-10-14T17:45:52Z</time>
      </trkpt>
      <trkpt lat="59.826296478191" lon="16.983513822691">
        <ele>42.6</ele>
        <time>2019-10-14T17:46:00Z</time>
      </trkpt>
      <trkpt lat="59.826266135713" lon="16.983121885047">
        <ele>42.4</ele>
        <time>2019-10-14T17:46:08Z</time>
      </trkpt>
      <trkpt lat="59.826235709416" lon="16.982748890497">
        <ele>40.6</ele>
        <time>2019-10-14T17:46:16Z</time>
      </trkpt>
      <trkpt lat="59.826210982811" lon="16.982374722481">
        <ele>39.8</ele>
        <time>2019-10-14T17:46:24Z</time>
      </trkpt>
      <trkpt lat="59.826192039717" lon="16.981985550864">
        <ele>40.2</ele>
        <time>2019-10-14T17:46:32Z</time>
      </trkpt>
      <trkpt lat="59.826167899845" lon="16.981613897418">
        <ele>40</ele>
        <time>2019-10-14T17:46:40Z</time>
      </trkpt>
      <trkpt lat="59.826136970634" lon="16.981230174036">
        <ele>39.8</ele>
        <time>2019-10-14T17:46:48Z</time>
      </trkpt>
      <trkpt lat="59.82610880745" lon="16.980851228337">
        <ele>40.6</ele>
        <time>2019-10-14T17:46:56Z</time>
      </trkpt>
      <trkpt lat="59.826093300935" lon="16.980481502728">
        <ele>40.8</ele>
        <time>2019-10-14T17:47:04Z</time>
      </trkpt>
      <trkpt lat="59.826065640665" lon="16.980112866766">
        <ele>41</ele>
        <time>2019-10-14T17:47:12Z</time>
      </trkpt>
      <trkpt lat="59.826028425029" lon="16.979734256343">
        <ele>41.2</ele>
        <time>2019-10-14T17:47:20Z</time>
      </trkpt>
      <trkpt lat="59.826000010388" lon="16.979362267621">
        <ele>41.6</ele>
        <time>2019-10-14T17:47:28Z</time>
      </trkpt>
      <trkpt lat="59.825978552724" lon="16.979023052128">
        <ele>42.4</ele>
        <time>2019-10-14T17:47:36Z</time>
      </trkpt>
      <trkpt lat="59.825999675112" lon="16.979185828626">
        <ele>42.4</ele>
        <time>2019-10-14T17:47:40Z</time>
      </trkpt>
      <trkpt lat="59.82603504673" lon="16.979580616116">
        <ele>43</ele>
        <time>2019-10-14T17:47:48Z</time>
      </trkpt>
      <trkpt lat="59.826059605697" lon="16.979975990339">
        <ele>42.6</ele>
        <time>2019-10-14T17:47:56Z</time>
      </trkpt>
      <trkpt lat="59.826102353387" lon="16.980324928836">
        <ele>43.8</ele>
        <time>2019-10-14T17:48:03Z</time>
      </trkpt>
      <trkpt lat="59.826121883214" lon="16.980721560344">
        <ele>43.8</ele>
        <time>2019-10-14T17:48:11Z</time>
      </trkpt>
      <trkpt lat="59.826150214036" lon="16.981103858803">
        <ele>43.6</ele>
        <time>2019-10-14T17:48:19Z</time>
      </trkpt>
      <trkpt lat="59.826167229293" lon="16.981502082872">
        <ele>42</ele>
        <time>2019-10-14T17:48:27Z</time>
      </trkpt>
      <trkpt lat="59.826194554287" lon="16.981888320824">
        <ele>42</ele>
        <time>2019-10-14T17:48:35Z</time>
      </trkpt>
      <trkpt lat="59.826205115481" lon="16.982289143282">
        <ele>40.2</ele>
        <time>2019-10-14T17:48:43Z</time>
      </trkpt>
      <trkpt lat="59.82622447767" lon="16.982681416202">
        <ele>39.2</ele>
        <time>2019-10-14T17:48:51Z</time>
      </trkpt>
      <trkpt lat="59.826258172908" lon="16.983034964744">
        <ele>40.4</ele>
        <time>2019-10-14T17:48:58Z</time>
      </trkpt>
      <trkpt lat="59.826293460707" lon="16.983423717266">
        <ele>41.8</ele>
        <time>2019-10-14T17:49:06Z</time>
      </trkpt>
      <trkpt lat="59.826322378262" lon="16.98378128912">
        <ele>41</ele>
        <time>2019-10-14T17:49:13Z</time>
      </trkpt>
      <trkpt lat="59.82635355893" lon="16.984171215108">
        <ele>41.4</ele>
        <time>2019-10-14T17:49:21Z</time>
      </trkpt>
      <trkpt lat="59.82637199911" lon="16.984560135268">
        <ele>39.4</ele>
        <time>2019-10-14T17:49:29Z</time>
      </trkpt>
      <trkpt lat="59.826395636068" lon="16.984934387103">
        <ele>39</ele>
        <time>2019-10-14T17:49:37Z</time>
      </trkpt>
      <trkpt lat="59.826427235831" lon="16.985311237327">
        <ele>39.4</ele>
        <time>2019-10-14T17:49:45Z</time>
      </trkpt>
      <trkpt lat="59.826471156987" lon="16.985677191081">
        <ele>41</ele>
        <time>2019-10-14T17:49:53Z</time>
      </trkpt>
      <trkpt lat="59.826494039574" lon="16.985775762225">
        <ele>41.8</ele>
        <time>2019-10-14T17:49:56Z</time>
      </trkpt>
      <trkpt lat="59.826614655115" lon="16.985818761372">
        <ele>41</ele>
        <time>2019-10-14T17:50:01Z</time>
      </trkpt>
      <trkpt lat="59.826796039431" lon="16.985839632303">
        <ele>39.4</ele>
        <time>2019-10-14T17:50:08Z</time>
      </trkpt>
      <trkpt lat="59.826975244453" lon="16.985867711668">
        <ele>38</ele>
        <time>2019-10-14T17:50:15Z</time>
      </trkpt>
      <trkpt lat="59.827155287665" lon="16.985896126309">
        <ele>36.8</ele>
        <time>2019-10-14T17:50:22Z</time>
      </trkpt>
      <trkpt lat="59.827354441609" lon="16.985896796861">
        <ele>35.6</ele>
        <time>2019-10-14T17:50:30Z</time>
      </trkpt>
      <trkpt lat="59.827544040187" lon="16.985785485229">
        <ele>34.6</ele>
        <time>2019-10-14T17:50:38Z</time>
      </trkpt>
      <trkpt lat="59.827715366223" lon="16.985578536118">
        <ele>33.8</ele>
        <time>2019-10-14T17:50:46Z</time>
      </trkpt>
      <trkpt lat="59.827877975083" lon="16.985381896744">
        <ele>33.4</ele>
        <time>2019-10-14T17:50:54Z</time>
      </trkpt>
      <trkpt lat="59.828035638622" lon="16.985189364501">
        <ele>33.6</ele>
        <time>2019-10-14T17:51:02Z</time>
      </trkpt>
      <trkpt lat="59.828203025165" lon="16.984997251353">
        <ele>33.4</ele>
        <time>2019-10-14T17:51:10Z</time>
      </trkpt>
      <trkpt lat="59.828383403653" lon="16.984847299162">
        <ele>33.8</ele>
        <time>2019-10-14T17:51:18Z</time>
      </trkpt>
      <trkpt lat="59.828565626159" lon="16.984692736926">
        <ele>34.2</ele>
        <time>2019-10-14T17:51:26Z</time>
      </trkpt>
      <trkpt lat="59.828744412086" lon="16.984512609895">
        <ele>33.8</ele>
        <time>2019-10-14T17:51:34Z</time>
      </trkpt>
      <trkpt lat="59.828896962666" lon="16.984284286939">
        <ele>33.4</ele>
        <time>2019-10-14T17:51:42Z</time>
      </trkpt>
      <trkpt lat="59.829056805499" lon="16.983917746452">
        <ele>32.4</ele>
        <time>2019-10-14T17:51:52Z</time>
      </trkpt>
      <trkpt lat="59.829177672497" lon="16.98359940189">
        <ele>32.4</ele>
        <time>2019-10-14T17:52:00Z</time>
      </trkpt>
      <trkpt lat="59.829301305522" lon="16.983321458086">
        <ele>32.4</ele>
        <time>2019-10-14T17:52:08Z</time>
      </trkpt>
      <trkpt lat="59.829427620755" lon="16.983046364128">
        <ele>34.4</ele>
        <time>2019-10-14T17:52:16Z</time>
      </trkpt>
      <trkpt lat="59.829558965128" lon="16.982777305138">
        <ele>34.4</ele>
        <time>2019-10-14T17:52:24Z</time>
      </trkpt>
      <trkpt lat="59.829696595926" lon="16.982525429043">
        <ele>36.4</ele>
        <time>2019-10-14T17:52:32Z</time>
      </trkpt>
      <trkpt lat="59.82984964942" lon="16.982337339207">
        <ele>35.4</ele>
        <time>2019-10-14T17:52:39Z</time>
      </trkpt>
      <trkpt lat="59.830007312959" lon="16.982130809191">
        <ele>34.8</ele>
        <time>2019-10-14T17:52:47Z</time>
      </trkpt>
      <trkpt lat="59.830171011466" lon="16.981956130395">
        <ele>35.6</ele>
        <time>2019-10-14T17:52:55Z</time>
      </trkpt>
      <trkpt lat="59.830333955602" lon="16.98176879493">
        <ele>35.6</ele>
        <time>2019-10-14T17:53:03Z</time>
      </trkpt>
      <trkpt lat="59.830491954417" lon="16.981596043971">
        <ele>35.6</ele>
        <time>2019-10-14T17:53:11Z</time>
      </trkpt>
      <trkpt lat="59.830651042879" lon="16.981408876144">
        <ele>36.2</ele>
        <time>2019-10-14T17:53:19Z</time>
      </trkpt>
      <trkpt lat="59.830808957875" lon="16.981224474344">
        <ele>35.2</ele>
        <time>2019-10-14T17:53:27Z</time>
      </trkpt>
      <trkpt lat="59.830964358301" lon="16.98103034954">
        <ele>34</ele>
        <time>2019-10-14T17:53:35Z</time>
      </trkpt>
      <trkpt lat="59.831122608573" lon="16.980846953568">
        <ele>33.6</ele>
        <time>2019-10-14T17:53:43Z</time>
      </trkpt>
      <trkpt lat="59.831290330392" lon="16.98065986956">
        <ele>35.2</ele>
        <time>2019-10-14T17:53:51Z</time>
      </trkpt>
      <trkpt lat="59.831456878745" lon="16.98050061346">
        <ele>35.6</ele>
        <time>2019-10-14T17:53:59Z</time>
      </trkpt>
      <trkpt lat="59.831626528401" lon="16.980331885813">
        <ele>37.2</ele>
        <time>2019-10-14T17:54:07Z</time>
      </trkpt>
      <trkpt lat="59.831798608808" lon="16.98018126307">
        <ele>39.4</ele>
        <time>2019-10-14T17:54:15Z</time>
      </trkpt>
      <trkpt lat="59.831974963984" lon="16.980046146842">
        <ele>41</ele>
        <time>2019-10-14T17:54:23Z</time>
      </trkpt>
      <trkpt lat="59.832148050219" lon="16.979925447482">
        <ele>40.4</ele>
        <time>2019-10-14T17:54:31Z</time>
      </trkpt>
      <trkpt lat="59.832286100112" lon="16.979876078091">
        <ele>42.2</ele>
        <time>2019-10-14T17:54:39Z</time>
      </trkpt>
      <trkpt lat="59.832097339724" lon="16.980033154897">
        <ele>45</ele>
        <time>2019-10-14T17:54:47Z</time>
      </trkpt>
      <trkpt lat="59.831911680639" lon="16.980176569206">
        <ele>47.2</ele>
        <time>2019-10-14T17:54:55Z</time>
      </trkpt>
      <trkpt lat="59.831728284667" lon="16.980340854446">
        <ele>49</ele>
        <time>2019-10-14T17:55:03Z</time>
      </trkpt>
      <trkpt lat="59.831552767681" lon="16.980506229333">
        <ele>48.8</ele>
        <time>2019-10-14T17:55:11Z</time>
      </trkpt>
      <trkpt lat="59.831381357826" lon="16.980691217866">
        <ele>47.8</ele>
        <time>2019-10-14T17:55:19Z</time>
      </trkpt>
      <trkpt lat="59.831222939916" lon="16.980862627721">
        <ele>48.2</ele>
        <time>2019-10-14T17:55:26Z</time>
      </trkpt>
      <trkpt lat="59.831045662731" lon="16.981063625683">
        <ele>46.4</ele>
        <time>2019-10-14T17:55:34Z</time>
      </trkpt>
      <trkpt lat="59.830873749962" lon="16.981259762143">
        <ele>43</ele>
        <time>2019-10-14T17:55:42Z</time>
      </trkpt>
      <trkpt lat="59.83071382331" lon="16.981435362948">
        <ele>41.4</ele>
        <time>2019-10-14T17:55:49Z</time>
      </trkpt>
      <trkpt lat="59.830538054867" lon="16.981609874106">
        <ele>41.8</ele>
        <time>2019-10-14T17:55:57Z</time>
      </trkpt>
      <trkpt lat="59.830371757971" lon="16.981801149064">
        <ele>42.2</ele>
        <time>2019-10-14T17:56:05Z</time>
      </trkpt>
      <trkpt lat="59.830201437763" lon="16.981993513669">
        <ele>41.4</ele>
        <time>2019-10-14T17:56:13Z</time>
      </trkpt>
      <trkpt lat="59.830027848614" lon="16.982181687324">
        <ele>41.6</ele>
        <time>2019-10-14T17:56:21Z</time>
      </trkpt>
      <trkpt lat="59.82986389865" lon="16.982396683059">
        <ele>41.4</ele>
        <time>2019-10-14T17:56:29Z</time>
      </trkpt>
      <trkpt lat="59.829701876523" lon="16.982628191137">
        <ele>42.4</ele>
        <time>2019-10-14T17:56:37Z</time>
      </trkpt>
      <trkpt lat="59.829552594884" lon="16.982894567919">
        <ele>40.2</ele>
        <time>2019-10-14T17:56:45Z</time>
      </trkpt>
      <trkpt lat="59.829407420376" lon="16.983178379053">
        <ele>37</ele>
        <time>2019-10-14T17:56:53Z</time>
      </trkpt>
      <trkpt lat="59.829283787351" lon="16.983439056143">
        <ele>33.4</ele>
        <time>2019-10-14T17:57:00Z</time>
      </trkpt>
      <trkpt lat="59.829168033312" lon="16.983715407386">
        <ele>32</ele>
        <time>2019-10-14T17:57:07Z</time>
      </trkpt>
      <trkpt lat="59.829038197681" lon="16.984012126646">
        <ele>31</ele>
        <time>2019-10-14T17:57:15Z</time>
      </trkpt>
      <trkpt lat="59.828907272403" lon="16.984296356875">
        <ele>29.8</ele>
        <time>2019-10-14T17:57:23Z</time>
      </trkpt>
      <trkpt lat="59.828752374891" lon="16.984549238798">
        <ele>31.4</ele>
        <time>2019-10-14T17:57:31Z</time>
      </trkpt>
      <trkpt lat="59.828583731063" lon="16.984744620887">
        <ele>33.6</ele>
        <time>2019-10-14T17:57:39Z</time>
      </trkpt>
      <trkpt lat="59.828418691452" lon="16.984907145928">
        <ele>35.8</ele>
        <time>2019-10-14T17:57:46Z</time>
      </trkpt>
      <trkpt lat="59.828244599389" lon="16.985082914371">
        <ele>38.2</ele>
        <time>2019-10-14T17:57:54Z</time>
      </trkpt>
      <trkpt lat="59.828048043834" lon="16.985287432731">
        <ele>36.4</ele>
        <time>2019-10-14T17:58:03Z</time>
      </trkpt>
      <trkpt lat="59.827892894865" lon="16.985479378241">
        <ele>35.8</ele>
        <time>2019-10-14T17:58:10Z</time>
      </trkpt>
      <trkpt lat="59.827734141679" lon="16.985666210792">
        <ele>35.2</ele>
        <time>2019-10-14T17:58:17Z</time>
      </trkpt>
      <trkpt lat="59.827557954141" lon="16.985848852393">
        <ele>36.8</ele>
        <time>2019-10-14T17:58:25Z</time>
      </trkpt>
      <trkpt lat="59.827381515146" lon="16.985975251445">
        <ele>39</ele>
        <time>2019-10-14T17:58:32Z</time>
      </trkpt>
      <trkpt lat="59.827185211048" lon="16.986002408801">
        <ele>42.4</ele>
        <time>2019-10-14T17:58:40Z</time>
      </trkpt>
      <trkpt lat="59.826996199203" lon="16.985970557581">
        <ele>46.8</ele>
        <time>2019-10-14T17:58:48Z</time>
      </trkpt>
      <trkpt lat="59.826797715811" lon="16.985913141566">
        <ele>49.2</ele>
        <time>2019-10-14T17:58:56Z</time>
      </trkpt>
      <trkpt lat="59.826604261559" lon="16.985857569569">
        <ele>53.2</ele>
        <time>2019-10-14T17:59:04Z</time>
      </trkpt>
      <trkpt lat="59.826406700176" lon="16.985840973407">
        <ele>55.2</ele>
        <time>2019-10-14T17:59:12Z</time>
      </trkpt>
      <trkpt lat="59.826230680276" lon="16.985945663338">
        <ele>58.2</ele>
        <time>2019-10-14T17:59:20Z</time>
      </trkpt>
      <trkpt lat="59.826050301788" lon="16.986054879495">
        <ele>60.6</ele>
        <time>2019-10-14T17:59:28Z</time>
      </trkpt>
      <trkpt lat="59.825869504205" lon="16.98618689442">
        <ele>61.6</ele>
        <time>2019-10-14T17:59:36Z</time>
      </trkpt>
      <trkpt lat="59.825697842893" lon="16.986297786957">
        <ele>60.8</ele>
        <time>2019-10-14T17:59:43Z</time>
      </trkpt>
      <trkpt lat="59.825520733346" lon="16.986402812164">
        <ele>60.4</ele>
        <time>2019-10-14T17:59:50Z</time>
      </trkpt>
      <trkpt lat="59.825321998497" lon="16.986514123796">
        <ele>57.2</ele>
        <time>2019-10-14T17:59:58Z</time>
      </trkpt>
      <trkpt lat="59.825134914489" lon="16.98665544263">
        <ele>54.2</ele>
        <time>2019-10-14T18:00:05Z</time>
      </trkpt>
      <trkpt lat="59.824955206553" lon="16.986745883331">
        <ele>54.4</ele>
        <time>2019-10-14T18:00:12Z</time>
      </trkpt>
      <trkpt lat="59.824751442564" lon="16.986827606856">
        <ele>53.2</ele>
        <time>2019-10-14T18:00:20Z</time>
      </trkpt>
      <trkpt lat="59.824570980257" lon="16.98691109058">
        <ele>52.4</ele>
        <time>2019-10-14T18:00:27Z</time>
      </trkpt>
      <trkpt lat="59.82437543053" lon="16.987003459118">
        <ele>52.2</ele>
        <time>2019-10-14T18:00:35Z</time>
      </trkpt>
      <trkpt lat="59.824181976278" lon="16.987093564543">
        <ele>54</ele>
        <time>2019-10-14T18:00:43Z</time>
      </trkpt>
      <trkpt lat="59.82398734856" lon="16.987195991361">
        <ele>52.4</ele>
        <time>2019-10-14T18:00:51Z</time>
      </trkpt>
      <trkpt lat="59.823810155194" lon="16.98728743789">
        <ele>50.6</ele>
        <time>2019-10-14T18:00:58Z</time>
      </trkpt>
      <trkpt lat="59.82363279419" lon="16.987387433957">
        <ele>48</ele>
        <time>2019-10-14T18:01:05Z</time>
      </trkpt>
      <trkpt lat="59.823436322454" lon="16.987507965679">
        <ele>45.4</ele>
        <time>2019-10-14T18:01:13Z</time>
      </trkpt>
      <trkpt lat="59.823252172111" lon="16.98763361036">
        <ele>44.8</ele>
        <time>2019-10-14T18:01:21Z</time>
      </trkpt>
      <trkpt lat="59.82306701594" lon="16.987740144309">
        <ele>45.4</ele>
        <time>2019-10-14T18:01:29Z</time>
      </trkpt>
      <trkpt lat="59.822868867824" lon="16.987830082096">
        <ele>43.8</ele>
        <time>2019-10-14T18:01:37Z</time>
      </trkpt>
      <trkpt lat="59.822682202911" lon="16.987942148099">
        <ele>43.4</ele>
        <time>2019-10-14T18:01:45Z</time>
      </trkpt>
      <trkpt lat="59.822498220206" lon="16.988045916021">
        <ele>45</ele>
        <time>2019-10-14T18:01:53Z</time>
      </trkpt>
      <trkpt lat="59.822315494786" lon="16.988160245137">
        <ele>46.2</ele>
        <time>2019-10-14T18:02:01Z</time>
      </trkpt>
      <trkpt lat="59.822222707153" lon="16.988222438835">
        <ele>46.8</ele>
        <time>2019-10-14T18:02:05Z</time>
      </trkpt>
      <trkpt lat="59.822049956194" lon="16.988351352457">
        <ele>45.8</ele>
        <time>2019-10-14T18:02:12Z</time>
      </trkpt>
      <trkpt lat="59.821853987372" lon="16.988450594153">
        <ele>46</ele>
        <time>2019-10-14T18:02:20Z</time>
      </trkpt>
      <trkpt lat="59.821671848685" lon="16.988567856934">
        <ele>46.6</ele>
        <time>2019-10-14T18:02:28Z</time>
      </trkpt>
      <trkpt lat="59.821481914831" lon="16.988655783065">
        <ele>45.6</ele>
        <time>2019-10-14T18:02:36Z</time>
      </trkpt>
      <trkpt lat="59.821285694552" lon="16.98874588849">
        <ele>45.6</ele>
        <time>2019-10-14T18:02:44Z</time>
      </trkpt>
      <trkpt lat="59.821094251956" lon="16.988825767997">
        <ele>44.8</ele>
        <time>2019-10-14T18:02:52Z</time>
      </trkpt>
      <trkpt lat="59.82090364755" lon="16.988926015521">
        <ele>46.2</ele>
        <time>2019-10-14T18:03:00Z</time>
      </trkpt>
      <trkpt lat="59.820716228266" lon="16.989028190882">
        <ele>46.6</ele>
        <time>2019-10-14T18:03:08Z</time>
      </trkpt>
      <trkpt lat="59.820537861434" lon="16.989120810877">
        <ele>48.4</ele>
        <time>2019-10-14T18:03:16Z</time>
      </trkpt>
      <trkpt lat="59.820354884557" lon="16.98919851109">
        <ele>50.8</ele>
        <time>2019-10-14T18:03:24Z</time>
      </trkpt>
      <trkpt lat="59.820167549092" lon="16.989270511611">
        <ele>52.2</ele>
        <time>2019-10-14T18:03:32Z</time>
      </trkpt>
      <trkpt lat="59.820078533314" lon="16.989254418363">
        <ele>51.8</ele>
        <time>2019-10-14T18:03:36Z</time>
      </trkpt>
      <trkpt lat="59.820017764539" lon="16.988872538999">
        <ele>49.6</ele>
        <time>2019-10-14T18:03:44Z</time>
      </trkpt>
      <trkpt lat="59.819949954968" lon="16.988525360701">
        <ele>46.4</ele>
        <time>2019-10-14T18:03:52Z</time>
      </trkpt>
      <trkpt lat="59.819837386051" lon="16.987972909672">
        <ele>41.8</ele>
        <time>2019-10-14T18:04:05Z</time>
      </trkpt>
      <trkpt lat="59.819782484606" lon="16.987593963973">
        <ele>38.6</ele>
        <time>2019-10-14T18:04:14Z</time>
      </trkpt>
      <trkpt lat="59.819721212917" lon="16.987217532844">
        <ele>38.4</ele>
        <time>2019-10-14T18:04:23Z</time>
      </trkpt>
      <trkpt lat="59.81966061178" lon="16.986855183307">
        <ele>38.2</ele>
        <time>2019-10-14T18:04:32Z</time>
      </trkpt>
      <trkpt lat="59.81960193848" lon="16.986479003635">
        <ele>38.8</ele>
        <time>2019-10-14T18:04:41Z</time>
      </trkpt>
      <trkpt lat="59.819542929904" lon="16.986137944124">
        <ele>38.6</ele>
        <time>2019-10-14T18:04:49Z</time>
      </trkpt>
      <trkpt lat="59.819486687355" lon="16.985786574876">
        <ele>37.4</ele>
        <time>2019-10-14T18:04:57Z</time>
      </trkpt>
      <trkpt lat="59.819422398182" lon="16.985405617521">
        <ele>38</ele>
        <time>2019-10-14T18:05:05Z</time>
      </trkpt>
      <trkpt lat="59.819415273567" lon="16.985324145453">
        <ele>39</ele>
        <time>2019-10-14T18:05:07Z</time>
      </trkpt>
      <trkpt lat="59.819424996571" lon="16.985245439412">
        <ele>39</ele>
        <time>2019-10-14T18:05:21Z</time>
      </trkpt>
      <trkpt lat="59.819426421494" lon="16.985246612878">
        <ele>38.8</ele>
        <time>2019-10-14T18:05:22Z</time>
      </trkpt>
    </trkseg>
  </trk>
</gpx>